メインページ
METAR-TAF:

METAR-TAF

空港 :

ハルビン, 中華人民共和国

ハルビン太平国際空港

緯度: 45-45N, 経度: 126-46E, 海抜: 143m

現時点の気象観測

当レポートは44分前の14:00(UTC)に作成
北西の風 6kt
気温 20°C
湿度 88%
気圧 1008 hPa
視程10km以上
高度4000ftの雲は散在している
小雨

METAR: ZYHB 271400Z 32003MPS 9999 -RA SCT040 20/18 Q1008 NOSIG

時間: 22:44 (14:44 UTC)

予報

当レポートは1時間53分前の12:51(UTC)に作成
予報は27日の 12時(UTC)から 28日の 12時(UTC)まで有効
の風 8kt
視程: 6000m
高度3000ftの雲は散在している
27日の 12時(UTC)から 27日の 16時(UTC)まで一時的に
高度2300ftの雲はほとんどない, 積乱雲.
高度2600ftの千切れ雲あり
激しい雷雨, 小雨

TAF: ZYHB 271251Z 2712/2812 35004MPS 6000 SCT030 TX26/2806Z TN17/2720Z TEMPO 2712/2716 -TSRA FEW023CB BKN026

4,000以上の空港の気象観測と天気予報(METAR報とTAF報)

利用可能な観測所は地図上に黄色い丸と赤い丸で示す。

丸の上にカーソルを重ねると観測所名を参照できる。

次にクリックすると気象観測と天気予報を参照できる。

マップの切り替え:黒色「×」印の緑ボタンをクリックして拡大、「-」印の緑ボタンをクリックして縮小、緑色の三角印をクリックして隣りの地図に切り替え


METAR-TAF: